createdAt,value
2022-11-27T00:00:45.647Z,93.01
2022-11-27T00:01:45.646Z,93.12
2022-11-27T00:02:45.774Z,93.32
2022-11-27T00:03:45.678Z,93.22
2022-11-27T00:04:46.193Z,93.32
2022-11-27T00:05:45.593Z,93.01
2022-11-27T00:06:45.592Z,92.91
2022-11-27T00:07:45.751Z,92.80
2022-11-27T00:08:45.572Z,93.53
2022-11-27T00:09:45.573Z,93.01
2022-11-27T00:10:45.559Z,93.32
2022-11-27T00:11:45.547Z,92.97
2022-11-27T00:12:45.545Z,93.22
2022-11-27T00:13:45.542Z,92.91
2022-11-27T00:14:45.546Z,92.91
2022-11-27T00:15:46.222Z,92.86
2022-11-27T00:16:45.511Z,92.76
2022-11-27T00:17:45.516Z,92.91
2022-11-27T00:18:45.512Z,92.80
2022-11-27T00:19:45.498Z,93.01
2022-11-27T00:20:45.484Z,93.47
2022-11-27T00:21:45.508Z,92.91
2022-11-27T00:22:45.459Z,92.95
2022-11-27T00:23:45.470Z,94.19
2022-11-27T00:24:45.454Z,93.88
2022-11-27T00:25:46.197Z,94.25
2022-11-27T00:26:45.434Z,93.05
2022-11-27T00:28:33.869Z,93.63
2022-11-27T00:29:33.863Z,92.95
2022-11-27T00:30:33.857Z,92.85
2022-11-27T00:31:33.958Z,93.57
2022-11-27T00:32:33.832Z,93.37
2022-11-27T00:33:33.844Z,93.16
2022-11-27T00:34:34.931Z,93.37
2022-11-27T00:35:34.909Z,93.57
2022-11-27T00:36:34.891Z,93.82
2022-11-27T00:37:34.887Z,93.62
2022-11-27T00:38:38.664Z,93.62
2022-11-27T00:39:35.871Z,93.68
2022-11-27T00:40:34.862Z,93.88
2022-11-27T00:41:34.853Z,93.62
2022-11-27T00:42:34.845Z,93.41
2022-11-27T00:43:43.618Z,94.03
2022-11-27T00:44:36.967Z,94.03
2022-11-27T00:45:34.817Z,93.93
2022-11-27T00:46:34.879Z,94.13
2022-11-27T00:47:34.800Z,93.82
2022-11-27T00:48:34.806Z,93.51
2022-11-27T00:49:34.789Z,93.72
2022-11-27T00:50:34.791Z,93.72
2022-11-27T00:51:34.775Z,93.93
2022-11-27T00:52:34.772Z,93.82
2022-11-27T00:53:35.759Z,92.99
2022-11-27T00:54:34.746Z,93.16
2022-11-27T00:55:34.750Z,93.10
2022-11-27T00:56:34.740Z,92.99
2022-11-27T00:57:34.735Z,93.10
2022-11-27T00:58:35.311Z,93.45
2022-11-27T00:59:34.728Z,94.44
2022-11-27T01:00:34.697Z,94.23
2022-11-27T01:01:34.720Z,93.10
2022-11-27T01:02:34.736Z,93.41
2022-11-27T01:03:34.694Z,93.55
2022-11-27T01:04:34.674Z,92.99
2022-11-27T01:05:34.658Z,94.38
2022-11-27T01:06:34.691Z,93.97
2022-11-27T01:07:34.738Z,93.66
2022-11-27T01:08:34.640Z,94.32
2022-11-27T01:09:34.631Z,94.12
2022-11-27T01:10:34.626Z,94.43
2022-11-27T01:11:34.619Z,94.32
2022-11-27T01:12:34.605Z,94.73
2022-11-27T01:13:34.602Z,94.22
2022-11-27T01:14:34.603Z,94.22
2022-11-27T01:15:34.627Z,94.53
2022-11-27T01:16:34.627Z,94.06
2022-11-27T01:17:34.574Z,93.95
2022-11-27T01:18:34.559Z,93.95
2022-11-27T01:19:34.552Z,94.68
2022-11-27T01:20:34.543Z,94.37
2022-11-27T01:21:34.542Z,93.95
2022-11-27T01:22:34.523Z,94.78
2022-11-27T01:23:34.511Z,95.65
2022-11-27T01:24:34.522Z,94.93
2022-11-27T01:25:34.504Z,95.44
2022-11-27T01:26:34.511Z,95.14
2022-11-27T01:27:34.502Z,95.44
2022-11-27T01:28:35.351Z,95.44
2022-11-27T01:30:40.752Z,95.65
2022-11-27T01:31:41.704Z,95.39
2022-11-27T01:32:40.739Z,95.14
2022-11-27T01:33:40.734Z,95.70
2022-11-27T01:34:40.872Z,95.59
2022-11-27T01:35:40.720Z,95.70
2022-11-27T01:36:40.713Z,96.01
2022-11-27T01:37:40.700Z,95.70
2022-11-27T01:38:40.704Z,95.95
2022-11-27T01:39:40.687Z,96.21
2022-11-27T01:40:40.679Z,96.05
2022-11-27T01:41:40.675Z,96.05
2022-11-27T01:42:40.672Z,96.15
2022-11-27T01:43:40.653Z,96.57
2022-11-27T01:44:40.826Z,96.57
2022-11-27T01:45:40.642Z,96.47
2022-11-27T01:46:40.689Z,96.36
2022-11-27T01:47:40.622Z,97.24
2022-11-27T01:48:41.707Z,97.29
2022-11-27T01:49:41.701Z,97.29
2022-11-27T01:50:41.697Z,97.13
2022-11-27T01:51:41.717Z,97.09
2022-11-27T01:52:41.663Z,97.44
2022-11-27T01:53:41.669Z,97.44
2022-11-27T01:54:41.914Z,97.86
2022-11-27T01:55:42.648Z,97.75
2022-11-27T01:56:41.658Z,97.90
2022-11-27T01:57:41.648Z,97.86
2022-11-27T01:58:41.632Z,97.55
2022-11-27T01:59:41.624Z,97.49
2022-11-27T02:00:41.625Z,97.80
2022-11-27T02:01:41.697Z,97.59
2022-11-27T02:02:41.631Z,97.90
2022-11-27T02:03:42.596Z,98.21
2022-11-27T02:04:41.894Z,98.11
2022-11-27T02:05:42.191Z,98.32
2022-11-27T02:06:41.567Z,98.11
2022-11-27T02:07:41.637Z,98.32
2022-11-27T02:08:41.545Z,98.32
2022-11-27T02:09:41.554Z,98.11
2022-11-27T02:10:42.527Z,98.42
2022-11-27T02:11:42.119Z,98.73
2022-11-27T02:12:41.523Z,99.25
2022-11-27T02:13:41.507Z,99.56
2022-11-27T02:14:47.493Z,99.61
2022-11-27T02:15:42.505Z,99.71
2022-11-27T02:16:41.609Z,99.35
2022-11-27T02:17:41.499Z,99.35
2022-11-27T02:18:41.476Z,98.68
2022-11-27T02:19:41.462Z,98.57
2022-11-27T02:20:41.455Z,98.16
2022-11-27T02:21:41.449Z,98.36
2022-11-27T02:22:41.436Z,98.51
2022-11-27T02:23:41.428Z,98.41
2022-11-27T02:24:41.830Z,98.82
2022-11-27T02:25:41.426Z,98.82
2022-11-27T02:26:41.402Z,99.44
2022-11-27T02:27:41.397Z,99.34
2022-11-27T02:28:41.402Z,99.55
2022-11-27T02:29:41.383Z,99.44
2022-11-27T02:30:41.390Z,99.44
2022-11-27T02:31:41.488Z,99.44
2022-11-27T02:32:42.203Z,99.96
2022-11-27T02:33:41.364Z,99.86
2022-11-27T02:34:41.582Z,99.44
2022-11-27T02:35:41.335Z,99.55
2022-11-27T02:36:41.336Z,99.86
2022-11-27T02:37:41.349Z,99.99
2022-11-27T02:38:41.366Z,99.99
2022-11-27T02:39:42.121Z,99.99
2022-11-27T02:40:41.298Z,99.99
2022-11-27T02:41:41.295Z,99.96
2022-11-27T02:42:41.381Z,99.99
2022-11-27T02:43:41.281Z,99.99
2022-11-27T02:44:41.588Z,99.99
2022-11-27T02:45:42.206Z,99.99
2022-11-27T02:46:41.333Z,99.99
2022-11-27T02:47:42.208Z,99.99
2022-11-27T02:48:41.241Z,99.99
2022-11-27T02:49:41.222Z,99.80
2022-11-27T02:50:41.214Z,99.70
2022-11-27T02:51:41.208Z,99.99
2022-11-27T02:52:41.213Z,99.99
2022-11-27T02:53:41.197Z,99.99
2022-11-27T02:54:41.510Z,99.99
2022-11-27T02:55:41.172Z,99.99
2022-11-27T02:56:41.164Z,99.99
2022-11-27T02:57:41.160Z,99.99
2022-11-27T02:58:41.253Z,99.99
2022-11-27T02:59:41.142Z,99.99
2022-11-27T03:00:41.139Z,99.99
2022-11-27T03:01:41.159Z,99.99
2022-11-27T03:02:41.160Z,99.99
2022-11-27T03:03:41.120Z,99.99
2022-11-27T03:04:42.092Z,99.99
2022-11-27T03:05:41.099Z,99.86
2022-11-27T03:06:41.100Z,99.99
2022-11-27T03:07:42.778Z,99.99
2022-11-27T03:08:41.073Z,99.99
2022-11-27T03:09:41.071Z,99.99
2022-11-27T03:10:41.063Z,99.99
2022-11-27T03:11:41.631Z,99.92
2022-11-27T03:12:41.045Z,99.71
2022-11-27T03:13:41.039Z,99.86
2022-11-27T03:14:41.408Z,99.71
2022-11-27T03:15:41.073Z,99.51
2022-11-27T03:16:41.005Z,99.34
2022-11-27T03:17:41.010Z,99.40
2022-11-27T03:18:40.990Z,99.51
2022-11-27T03:19:40.988Z,99.51
2022-11-27T03:20:40.974Z,99.92
2022-11-27T03:21:40.970Z,99.30
2022-11-27T03:22:40.962Z,99.87
2022-11-27T03:23:41.948Z,98.73
2022-11-27T03:24:41.320Z,98.73
2022-11-27T03:25:40.935Z,98.42
2022-11-27T03:26:40.927Z,98.73
2022-11-27T03:27:40.920Z,99.35
2022-11-27T03:28:40.923Z,99.46
2022-11-27T03:29:40.932Z,99.25
2022-11-27T03:30:40.991Z,99.04
2022-11-27T03:31:41.765Z,98.83
2022-11-27T03:32:42.628Z,98.63
2022-11-27T03:33:40.875Z,98.79
2022-11-27T03:34:41.131Z,98.17
2022-11-27T03:35:41.708Z,98.27
2022-11-27T03:36:40.854Z,98.07
2022-11-27T03:37:40.844Z,97.86
2022-11-27T03:38:40.844Z,97.44
2022-11-27T03:39:40.824Z,97.96
2022-11-27T03:40:40.830Z,97.71
2022-11-27T03:41:40.807Z,97.55
2022-11-27T03:42:40.805Z,97.19
2022-11-27T03:43:40.791Z,97.09
2022-11-27T03:44:40.970Z,97.29
2022-11-27T03:45:40.784Z,97.24
2022-11-27T03:46:41.782Z,97.50
2022-11-27T03:47:40.836Z,97.09
2022-11-27T03:48:40.751Z,96.98
2022-11-27T03:49:40.753Z,96.98
2022-11-27T03:50:40.738Z,96.98
2022-11-27T03:51:40.729Z,97.25
2022-11-27T03:52:40.722Z,96.26
2022-11-27T03:53:40.719Z,96.01
2022-11-27T03:54:41.041Z,95.32
2022-11-27T03:55:40.699Z,95.49
2022-11-27T03:56:40.699Z,95.80
2022-11-27T03:57:40.683Z,95.80
2022-11-27T03:58:40.682Z,95.70
2022-11-27T03:59:40.665Z,95.18
2022-11-27T04:00:40.654Z,94.97
2022-11-27T04:01:40.691Z,95.39
2022-11-27T04:02:40.732Z,95.18
2022-11-27T04:03:40.673Z,95.90
2022-11-27T04:04:40.901Z,94.97
2022-11-27T04:05:40.611Z,94.76
2022-11-27T04:06:40.604Z,94.66
2022-11-27T04:07:40.658Z,94.72
2022-11-27T04:08:40.607Z,94.56
2022-11-27T04:09:40.733Z,94.45
2022-11-27T04:10:40.587Z,94.56
2022-11-27T04:11:40.568Z,94.20
2022-11-27T04:12:40.555Z,93.93
2022-11-27T04:13:40.582Z,94.24
2022-11-27T04:14:40.824Z,94.72
2022-11-27T04:15:40.535Z,94.35
2022-11-27T04:16:40.556Z,93.52
2022-11-27T04:17:40.516Z,93.89
2022-11-27T04:18:40.609Z,93.93
2022-11-27T04:19:41.216Z,94.60
2022-11-27T04:20:40.494Z,94.70
2022-11-27T04:21:40.495Z,95.84
2022-11-27T04:22:40.476Z,95.22
2022-11-27T04:23:40.474Z,95.01
2022-11-27T04:24:40.728Z,95.22
2022-11-27T04:25:40.460Z,95.43
2022-11-27T04:26:40.477Z,95.22
2022-11-27T04:27:40.485Z,95.22
2022-11-27T04:28:40.433Z,95.18
2022-11-27T04:29:40.429Z,95.32
2022-11-27T04:30:40.425Z,95.28
2022-11-27T04:31:40.501Z,95.28
2022-11-27T04:32:40.395Z,95.18
2022-11-27T04:33:40.395Z,95.18
2022-11-27T04:34:40.718Z,95.80
2022-11-27T04:35:40.403Z,96.05
2022-11-27T04:36:41.216Z,95.80
2022-11-27T04:37:40.375Z,95.90
2022-11-27T04:38:40.353Z,95.32
2022-11-27T04:39:40.343Z,95.12
2022-11-27T04:40:40.332Z,95.32
2022-11-27T04:41:40.323Z,95.12
2022-11-27T04:42:40.332Z,95.43
2022-11-27T04:43:40.313Z,95.53
2022-11-27T04:44:40.694Z,95.43
2022-11-27T04:45:40.292Z,95.32
2022-11-27T04:46:40.347Z,95.12
2022-11-27T04:47:40.274Z,95.57
2022-11-27T04:48:40.267Z,95.68
2022-11-27T04:49:40.292Z,96.30
2022-11-27T04:50:40.360Z,95.68
2022-11-27T04:51:41.145Z,95.93
2022-11-27T04:52:40.237Z,96.14
2022-11-27T04:53:40.265Z,96.14
2022-11-27T04:54:40.524Z,96.34
2022-11-27T04:55:40.217Z,96.14
2022-11-27T04:56:40.210Z,96.14
2022-11-27T04:57:40.201Z,96.14
2022-11-27T04:58:40.227Z,96.19
2022-11-27T04:59:40.191Z,96.50
2022-11-27T05:00:41.179Z,96.29
2022-11-27T05:01:40.204Z,96.23
2022-11-27T05:02:40.227Z,96.64
2022-11-27T05:03:40.159Z,96.54
2022-11-27T05:04:40.590Z,97.68
2022-11-27T05:05:40.132Z,96.89
2022-11-27T05:06:40.218Z,97.47
2022-11-27T05:07:40.175Z,97.52
2022-11-27T05:08:40.107Z,97.41
2022-11-27T05:09:40.107Z,97.62
2022-11-27T05:10:40.725Z,97.41
2022-11-27T05:11:40.082Z,97.93
2022-11-27T05:12:40.073Z,97.67
2022-11-27T05:13:40.056Z,98.08
2022-11-27T05:14:41.534Z,98.08
2022-11-27T05:15:40.051Z,97.77
2022-11-27T05:16:40.129Z,97.56
2022-11-27T05:17:40.039Z,97.88
2022-11-27T05:18:40.074Z,97.61
2022-11-27T05:19:40.038Z,97.56
2022-11-27T05:20:41.721Z,98.02
2022-11-27T05:21:39.999Z,98.13
2022-11-27T05:22:40.076Z,97.96
2022-11-27T05:23:41.026Z,98.07
2022-11-27T05:24:40.346Z,98.17
2022-11-27T05:25:41.666Z,98.17
2022-11-27T05:26:39.961Z,98.38
2022-11-27T05:27:39.954Z,98.07
2022-11-27T05:28:39.958Z,98.38
2022-11-27T05:29:39.944Z,98.17
2022-11-27T05:30:39.932Z,98.63
2022-11-27T05:31:39.969Z,99.36
2022-11-27T05:32:39.914Z,99.88
2022-11-27T05:33:39.911Z,99.99
2022-11-27T05:34:40.234Z,99.88
2022-11-27T05:35:40.887Z,99.99
2022-11-27T05:36:39.880Z,99.99
2022-11-27T05:37:39.874Z,99.99
2022-11-27T05:38:39.955Z,99.99
2022-11-27T05:39:39.862Z,99.99
2022-11-27T05:40:39.856Z,99.99
2022-11-27T05:41:39.837Z,99.99
2022-11-27T05:42:39.843Z,99.99
2022-11-27T05:43:39.835Z,99.99
2022-11-27T05:44:40.033Z,99.99
2022-11-27T05:45:40.731Z,99.99
2022-11-27T05:46:39.843Z,99.99
2022-11-27T05:47:39.795Z,99.99
2022-11-27T05:48:39.778Z,99.98
2022-11-27T05:49:42.654Z,99.87
2022-11-27T05:50:39.790Z,99.99
2022-11-27T05:51:39.756Z,99.99
2022-11-27T05:52:39.751Z,99.99
2022-11-27T05:53:39.749Z,99.99
2022-11-27T05:54:40.183Z,99.99
2022-11-27T05:55:39.722Z,99.99
2022-11-27T05:56:39.719Z,99.99
2022-11-27T05:57:40.236Z,99.99
2022-11-27T05:58:39.703Z,99.99
2022-11-27T05:59:39.698Z,99.99
2022-11-27T06:00:39.723Z,99.81
2022-11-27T06:01:39.732Z,99.99
2022-11-27T06:02:39.814Z,99.99
2022-11-27T06:03:39.763Z,99.81
2022-11-27T06:04:39.947Z,99.99
2022-11-27T06:05:39.652Z,99.96
2022-11-27T06:06:39.637Z,99.99
2022-11-27T06:07:39.686Z,99.99
2022-11-27T06:08:40.632Z,99.99
2022-11-27T06:09:39.613Z,99.99
2022-11-27T06:10:39.724Z,99.99
2022-11-27T06:11:39.618Z,99.96
2022-11-27T06:12:39.592Z,99.99
2022-11-27T06:13:39.582Z,99.99
2022-11-27T06:14:39.826Z,99.99
2022-11-27T06:15:39.569Z,99.99
2022-11-27T06:16:39.690Z,99.99
2022-11-27T06:17:39.546Z,99.99
2022-11-27T06:18:39.541Z,99.80
2022-11-27T06:19:39.537Z,99.99
2022-11-27T06:20:43.659Z,99.99
2022-11-27T06:21:40.523Z,99.99
2022-11-27T06:22:39.510Z,99.99
2022-11-27T06:23:39.499Z,99.99
2022-11-27T06:24:39.834Z,99.99
2022-11-27T06:25:39.485Z,99.99
2022-11-27T06:26:39.581Z,99.99
2022-11-27T06:27:39.480Z,99.99
2022-11-27T06:28:39.459Z,99.99
2022-11-27T06:29:39.483Z,99.99
2022-11-27T06:30:39.442Z,99.99
2022-11-27T06:31:39.478Z,99.99
2022-11-27T06:32:39.430Z,99.99
2022-11-27T06:33:39.419Z,99.99
2022-11-27T06:34:39.768Z,99.99
2022-11-27T06:35:39.403Z,99.99
2022-11-27T06:36:39.393Z,99.99
2022-11-27T06:37:39.383Z,99.99
2022-11-27T06:38:39.389Z,99.99
2022-11-27T06:39:39.384Z,99.99
2022-11-27T06:40:39.370Z,99.99
2022-11-27T06:41:39.355Z,99.99
2022-11-27T06:42:39.449Z,99.99
2022-11-27T06:43:39.356Z,99.99
2022-11-27T06:44:39.635Z,99.99
2022-11-27T06:45:40.204Z,99.99
2022-11-27T06:46:39.317Z,99.99
2022-11-27T06:47:39.309Z,99.99
2022-11-27T06:48:39.309Z,99.99
2022-11-27T06:50:12.208Z,99.99
2022-11-27T06:50:40.292Z,99.99
2022-11-27T06:51:39.290Z,99.99
2022-11-27T06:52:40.781Z,99.99
2022-11-27T06:53:40.264Z,99.99
2022-11-27T06:54:39.627Z,99.99
2022-11-27T06:55:39.253Z,99.99
2022-11-27T06:56:39.250Z,99.99
2022-11-27T06:57:39.247Z,99.99
2022-11-27T06:58:39.322Z,99.99
2022-11-27T06:59:39.234Z,99.99
2022-11-27T07:00:39.267Z,99.99
2022-11-27T07:01:39.266Z,99.99
2022-11-27T07:02:39.245Z,99.99
2022-11-27T07:03:39.193Z,99.99
2022-11-27T07:04:39.517Z,99.99
2022-11-27T07:05:39.178Z,99.99
2022-11-27T07:06:39.171Z,99.99
2022-11-27T07:07:43.643Z,99.99
2022-11-27T07:08:40.168Z,99.99
2022-11-27T07:09:39.144Z,99.95
2022-11-27T07:10:39.135Z,99.99
2022-11-27T07:11:39.124Z,99.53
2022-11-27T07:12:39.114Z,99.74
2022-11-27T07:13:39.120Z,99.63
2022-11-27T07:14:39.455Z,99.37
2022-11-27T07:15:39.112Z,99.26
2022-11-27T07:16:39.181Z,99.26
2022-11-27T07:17:39.084Z,99.37
2022-11-27T07:18:39.698Z,99.47
2022-11-27T07:19:39.072Z,99.26
2022-11-27T07:20:39.058Z,99.79
2022-11-27T07:21:39.053Z,99.89
2022-11-27T07:22:39.063Z,99.99
2022-11-27T07:23:39.044Z,99.62
2022-11-27T07:24:39.398Z,99.89
2022-11-27T07:25:39.030Z,99.99
2022-11-27T07:26:39.008Z,99.99
2022-11-27T07:27:39.001Z,99.99
2022-11-27T07:28:38.997Z,99.99
2022-11-27T07:29:38.998Z,99.99
2022-11-27T07:30:39.090Z,99.99
2022-11-27T07:31:39.032Z,99.89
2022-11-27T07:32:38.969Z,99.79
2022-11-27T07:33:38.954Z,99.99
2022-11-27T07:34:39.330Z,99.99
2022-11-27T07:35:38.941Z,99.99
2022-11-27T07:36:38.933Z,99.99
2022-11-27T07:37:38.952Z,99.99
2022-11-27T07:38:38.923Z,99.99
2022-11-27T07:40:01.454Z,99.99
2022-11-27T07:40:40.901Z,99.99
2022-11-27T07:41:38.922Z,99.99
2022-11-27T07:42:39.939Z,99.99
2022-11-27T07:43:38.880Z,99.99
2022-11-27T07:44:39.193Z,99.99
2022-11-27T07:45:39.022Z,99.99
2022-11-27T07:46:38.975Z,99.99
2022-11-27T07:47:38.848Z,99.99
2022-11-27T07:48:39.843Z,99.99
2022-11-27T07:49:38.845Z,99.99
2022-11-27T07:50:38.831Z,99.99
2022-11-27T07:51:38.815Z,99.99
2022-11-27T07:52:41.944Z,99.99
2022-11-27T07:53:39.803Z,99.99
2022-11-27T07:54:39.213Z,99.17
2022-11-27T07:55:38.783Z,99.48
2022-11-27T07:56:38.783Z,99.99
2022-11-27T07:57:38.770Z,99.99
2022-11-27T07:58:38.773Z,99.99
2022-11-27T07:59:42.961Z,99.99
2022-11-27T08:00:39.839Z,99.99
2022-11-27T08:01:38.776Z,99.99
2022-11-27T08:02:38.831Z,99.99
2022-11-27T08:03:38.749Z,99.99
2022-11-27T08:04:39.080Z,99.99
2022-11-27T08:05:38.709Z,99.71
2022-11-27T08:06:38.701Z,99.81
2022-11-27T08:07:38.781Z,99.99
2022-11-27T08:08:38.700Z,99.87
2022-11-27T08:09:38.670Z,99.87
2022-11-27T08:10:38.663Z,98.62
2022-11-27T08:11:38.674Z,98.72
2022-11-27T08:12:38.699Z,97.64
2022-11-27T08:13:38.656Z,97.58
2022-11-27T08:14:38.770Z,97.64
2022-11-27T08:15:39.646Z,97.01
2022-11-27T08:16:38.672Z,96.85
2022-11-27T08:17:38.615Z,96.53
2022-11-27T08:18:38.703Z,96.49
2022-11-27T08:19:38.596Z,96.22
2022-11-27T08:20:38.604Z,96.12
2022-11-27T08:21:38.578Z,95.56
2022-11-27T08:22:38.589Z,95.45
2022-11-27T08:23:38.564Z,95.03
2022-11-27T08:24:38.876Z,96.39
2022-11-27T08:25:38.733Z,95.97
2022-11-27T08:26:38.564Z,95.66
2022-11-27T08:27:38.535Z,95.97
2022-11-27T08:28:38.531Z,96.28
2022-11-27T08:29:38.527Z,95.87
2022-11-27T08:30:38.531Z,95.83
2022-11-27T08:31:38.586Z,95.51
2022-11-27T08:32:38.493Z,94.99
2022-11-27T08:33:38.496Z,94.43
2022-11-27T08:34:38.901Z,94.68
2022-11-27T08:35:38.492Z,94.78
2022-11-27T08:36:38.461Z,95.15
2022-11-27T08:37:38.465Z,94.53
2022-11-27T08:38:38.440Z,94.53
2022-11-27T08:39:38.488Z,94.32
2022-11-27T08:40:38.439Z,94.01
2022-11-27T08:41:38.423Z,93.76
2022-11-27T08:42:38.412Z,93.14
2022-11-27T08:43:38.397Z,93.66
2022-11-27T08:44:38.745Z,93.66
2022-11-27T08:45:38.427Z,93.10
2022-11-27T08:46:38.382Z,92.68
2022-11-27T08:47:38.375Z,92.78
2022-11-27T08:48:38.364Z,92.47
2022-11-27T08:49:42.508Z,92.78
2022-11-27T08:50:40.462Z,93.03
2022-11-27T08:51:38.394Z,92.20
2022-11-27T08:52:38.328Z,92.41
2022-11-27T08:53:38.384Z,91.95
2022-11-27T08:54:38.715Z,92.68
2022-11-27T08:55:38.318Z,92.68
2022-11-27T08:56:38.300Z,92.47
2022-11-27T08:57:38.286Z,92.05
2022-11-27T08:58:38.330Z,92.26
2022-11-27T08:59:38.267Z,91.85
2022-11-27T09:00:40.227Z,92.01
2022-11-27T09:01:38.322Z,91.95
2022-11-27T09:02:38.249Z,92.01
2022-11-27T09:03:38.296Z,91.91
2022-11-27T09:04:38.551Z,91.70
2022-11-27T09:05:38.265Z,91.55
2022-11-27T09:06:38.314Z,91.03
2022-11-27T09:07:38.275Z,90.69
2022-11-27T09:08:38.206Z,90.58
2022-11-27T09:09:38.185Z,89.44
2022-11-27T09:10:38.196Z,89.29
2022-11-27T09:11:38.178Z,88.88
2022-11-27T09:12:42.000Z,89.09
2022-11-27T09:13:40.173Z,89.19
2022-11-27T09:14:38.939Z,89.29
2022-11-27T09:15:38.810Z,89.09
2022-11-27T09:16:40.044Z,89.29
2022-11-27T09:17:38.152Z,89.29
2022-11-27T09:18:38.121Z,88.94
2022-11-27T09:19:38.114Z,89.04
2022-11-27T09:20:38.098Z,88.98
2022-11-27T09:21:38.152Z,89.61
2022-11-27T09:22:38.192Z,89.46
2022-11-27T09:23:38.085Z,89.36
2022-11-27T09:24:38.323Z,89.56
2022-11-27T09:25:38.057Z,89.36
2022-11-27T09:26:38.054Z,89.04
2022-11-27T09:27:38.056Z,88.84
2022-11-27T09:28:38.055Z,88.94
2022-11-27T09:29:38.026Z,89.15
2022-11-27T09:30:38.041Z,89.19
2022-11-27T09:31:38.069Z,89.15
2022-11-27T09:32:38.016Z,88.94
2022-11-27T09:33:38.012Z,89.11
2022-11-27T09:34:38.013Z,89.00
2022-11-27T09:35:38.117Z,89.04
2022-11-27T09:36:37.997Z,88.21
2022-11-27T09:37:37.972Z,87.87
2022-11-27T09:38:38.061Z,87.97
2022-11-27T09:39:37.954Z,87.66
2022-11-27T09:40:38.063Z,87.55
2022-11-27T09:41:38.805Z,87.51
2022-11-27T09:42:37.924Z,87.51
2022-11-27T09:43:37.922Z,87.30
2022-11-27T09:44:38.100Z,87.24
2022-11-27T09:45:37.971Z,87.35
2022-11-27T09:46:37.888Z,88.18
2022-11-27T09:47:41.402Z,88.28
2022-11-27T09:48:38.873Z,89.11
2022-11-27T09:49:37.873Z,88.79
2022-11-27T09:50:37.884Z,88.45
2022-11-27T09:51:37.850Z,87.93
2022-11-27T09:52:37.848Z,87.93
2022-11-27T09:53:37.841Z,88.45
2022-11-27T09:54:38.259Z,88.09
2022-11-27T09:55:37.820Z,87.64
2022-11-27T09:56:37.820Z,87.43
2022-11-27T09:57:37.795Z,86.91
2022-11-27T09:58:38.802Z,87.08
2022-11-27T09:59:37.780Z,86.46
2022-11-27T10:00:37.789Z,86.05
2022-11-27T10:01:45.311Z,86.57
2022-11-27T10:02:40.819Z,86.46
2022-11-27T10:03:37.761Z,86.46
2022-11-27T10:04:58.068Z,86.67
2022-11-27T10:05:39.747Z,86.46
2022-11-27T10:06:37.756Z,86.60
2022-11-27T10:07:37.745Z,86.67
2022-11-27T10:08:37.708Z,87.12
2022-11-27T10:09:37.732Z,87.12
2022-11-27T10:10:37.788Z,86.57
2022-11-27T10:11:37.705Z,87.08
2022-11-27T10:12:37.685Z,86.77
2022-11-27T10:13:37.663Z,86.63
2022-11-27T10:14:37.828Z,87.15
2022-11-27T10:15:37.656Z,87.15
2022-11-27T10:16:42.844Z,86.52
2022-11-27T10:17:39.643Z,86.63
2022-11-27T10:18:37.624Z,86.63
2022-11-27T10:19:37.613Z,86.63
2022-11-27T10:20:37.628Z,86.42
2022-11-27T10:21:37.616Z,86.59
2022-11-27T10:22:37.605Z,86.69
2022-11-27T10:23:37.585Z,86.49
2022-11-27T10:24:37.930Z,86.69
2022-11-27T10:25:37.589Z,86.38
2022-11-27T10:26:37.676Z,85.41
2022-11-27T10:27:37.555Z,85.37
2022-11-27T10:28:37.556Z,85.06
2022-11-27T10:29:37.539Z,84.81
2022-11-27T10:30:37.546Z,84.51
2022-11-27T10:31:37.566Z,84.06
2022-11-27T10:33:39.508Z,83.13
2022-11-27T10:34:37.536Z,83.50
2022-11-27T10:35:37.491Z,83.09
2022-11-27T10:36:37.480Z,82.78
2022-11-27T10:37:37.475Z,82.89
2022-11-27T10:38:37.477Z,82.98
2022-11-27T10:39:39.301Z,82.89
2022-11-27T10:40:37.450Z,83.44
2022-11-27T10:41:52.913Z,83.64
2022-11-27T10:42:39.550Z,83.50
2022-11-27T10:43:38.323Z,83.71
2022-11-27T10:44:37.433Z,83.81
2022-11-27T10:45:37.472Z,83.71
2022-11-27T10:46:37.408Z,83.98
2022-11-27T10:47:37.402Z,83.36
2022-11-27T10:48:37.402Z,83.36
2022-11-27T10:49:37.371Z,82.81
2022-11-27T10:50:37.363Z,82.60
2022-11-27T10:51:37.363Z,82.09
2022-11-27T10:52:37.351Z,82.05
2022-11-27T10:53:37.346Z,81.84
2022-11-27T10:54:37.333Z,81.53
2022-11-27T10:55:37.322Z,81.12
2022-11-27T10:56:37.316Z,80.88
2022-11-27T10:57:37.307Z,80.77
2022-11-27T10:58:37.396Z,80.77
2022-11-27T10:59:38.294Z,80.77
2022-11-27T11:00:37.277Z,81.49
2022-11-27T11:01:37.300Z,81.39
2022-11-27T11:02:37.347Z,81.19
2022-11-27T11:03:37.261Z,80.74
2022-11-27T11:04:38.728Z,79.91
2022-11-27T11:05:57.281Z,79.50
2022-11-27T11:06:39.232Z,79.30
2022-11-27T11:07:37.276Z,79.19
2022-11-27T11:08:37.215Z,79.19
2022-11-27T11:09:37.212Z,79.61
2022-11-27T11:10:37.198Z,79.81
2022-11-27T11:11:37.186Z,80.26
2022-11-27T11:12:37.183Z,79.85
2022-11-27T11:13:37.181Z,80.47
2022-11-27T11:14:37.269Z,80.16
2022-11-27T11:15:37.160Z,80.47
2022-11-27T11:16:37.234Z,80.43
2022-11-27T11:17:37.161Z,79.50
2022-11-27T11:18:37.740Z,79.50
2022-11-27T11:19:37.148Z,79.91
2022-11-27T11:20:37.125Z,80.33
2022-11-27T11:21:37.111Z,79.47
2022-11-27T11:22:37.111Z,79.71
2022-11-27T11:23:37.093Z,79.36
2022-11-27T11:24:37.087Z,78.64
2022-11-27T11:25:37.090Z,79.02
2022-11-27T11:26:37.074Z,78.71
2022-11-27T11:27:37.067Z,78.81
2022-11-27T11:28:39.640Z,78.81
2022-11-27T11:29:38.049Z,78.09
2022-11-27T11:30:37.130Z,78.30
2022-11-27T11:31:37.179Z,79.33
2022-11-27T11:32:37.026Z,79.02
2022-11-27T11:33:37.017Z,78.92
2022-11-27T11:34:37.006Z,78.92
2022-11-27T11:35:36.998Z,78.40
2022-11-27T11:36:37.009Z,78.85
2022-11-27T11:37:36.991Z,79.16
2022-11-27T11:38:36.976Z,78.92
2022-11-27T11:39:37.744Z,79.02
2022-11-27T11:40:36.966Z,78.27
2022-11-27T11:41:37.825Z,77.99
2022-11-27T11:42:36.949Z,78.61
2022-11-27T11:43:36.937Z,78.50
2022-11-27T11:44:36.935Z,78.88
2022-11-27T11:45:36.972Z,78.27
2022-11-27T11:46:37.106Z,77.23
2022-11-27T11:47:36.914Z,77.85
2022-11-27T11:48:36.906Z,77.20
2022-11-27T11:49:36.885Z,76.89
2022-11-27T11:50:36.878Z,76.68
2022-11-27T11:51:36.865Z,76.34
2022-11-27T11:52:36.865Z,77.10
2022-11-27T11:53:36.868Z,76.58
2022-11-27T11:54:36.873Z,76.38
2022-11-27T11:55:36.903Z,77.30
2022-11-27T11:56:36.860Z,77.20
2022-11-27T11:57:36.823Z,76.89
2022-11-27T11:58:36.831Z,76.89
2022-11-27T11:59:38.537Z,77.40
2022-11-27T12:00:58.165Z,77.10
2022-11-27T12:01:38.793Z,77.30
2022-11-27T12:02:36.970Z,77.06
2022-11-27T12:03:37.751Z,76.68
2022-11-27T12:04:36.819Z,77.17
2022-11-27T12:05:36.765Z,77.17
2022-11-27T12:06:36.748Z,75.62
2022-11-27T12:07:36.849Z,76.79
2022-11-27T12:08:36.734Z,76.55
2022-11-27T12:09:36.733Z,76.79
2022-11-27T12:10:36.731Z,76.55
2022-11-27T12:11:36.710Z,76.75
2022-11-27T12:12:36.719Z,77.26
2022-11-27T12:13:36.696Z,76.45
2022-11-27T12:14:36.682Z,76.55
2022-11-27T12:15:37.678Z,76.65
2022-11-27T12:16:36.785Z,76.45
2022-11-27T12:17:36.691Z,76.72
2022-11-27T12:18:36.753Z,77.17
2022-11-27T12:19:36.648Z,77.37
2022-11-27T12:20:36.639Z,76.55
2022-11-27T12:21:36.628Z,76.00
2022-11-27T12:22:36.627Z,76.62
2022-11-27T12:23:36.612Z,76.51
2022-11-27T12:24:36.620Z,75.69
2022-11-27T12:25:36.600Z,75.45
2022-11-27T12:26:36.602Z,76.68
2022-11-27T12:27:36.584Z,75.35
2022-11-27T12:28:36.584Z,75.45
2022-11-27T12:29:36.565Z,75.96
2022-11-27T12:30:36.560Z,75.66
2022-11-27T12:31:37.289Z,75.56
2022-11-27T12:32:36.546Z,75.45
2022-11-27T12:33:36.533Z,75.35
2022-11-27T12:34:36.628Z,75.45
2022-11-27T12:35:36.546Z,75.66
2022-11-27T12:36:36.518Z,76.48
2022-11-27T12:37:36.497Z,76.37
2022-11-27T12:38:36.501Z,76.07
2022-11-27T12:39:36.483Z,75.42
2022-11-27T12:40:36.482Z,76.37
2022-11-27T12:41:36.477Z,76.48
2022-11-27T12:42:36.464Z,75.76
2022-11-27T12:43:37.456Z,75.04
2022-11-27T12:44:36.458Z,75.56
2022-11-27T12:45:36.495Z,75.35
2022-11-27T12:46:36.450Z,75.66
2022-11-27T12:47:40.062Z,76.17
2022-11-27T12:48:37.422Z,76.37
2022-11-27T12:49:36.414Z,76.48
2022-11-27T12:50:36.504Z,75.31
2022-11-27T12:51:36.410Z,75.86
2022-11-27T12:52:36.398Z,75.76
2022-11-27T12:53:36.379Z,75.66
2022-11-27T12:54:36.376Z,75.82
2022-11-27T12:55:36.379Z,75.45